Terminal Aerodrome Forecast
Issued by NWS

Home | Current Version | Previous Version | Text Only | Print | Product List | Glossary On
Versions: 1 2 3 4 5 6 7 8 9 10 11 12 13 14 15 16 17 18 19 20 21 22 23 24
000
FTUS44 KHGX 281939 AAB
TAFLBX
TAF AMD
KLBX 281939Z 2820/2918 13005KT P6SM VCTS SCT027CB SCT060 BKN070
      TEMPO 2820/2821 VRB09KT -SHRA BKN027
     FM282200 09005KT P6SM VCTS BKN025CB OVC100
     FM290100 03003KT P6SM BKN120
     FM290900 35003KT P6SM VCSH SCT025 BKN050
     FM291500 06007KT P6SM VCTS BKN025CB OVC070=

USA.gov is the U.S. government's official web portal to all federal, state and local government web resources and services.